Time;durP1;ratioP1;P1;durP2;ratioP2;P2;SDS_P1;SDS_P2;PMS_P1;PMS_P2;Temp;Humidity;BMP_temperature;BMP_pressure;BME280_temperature;BME280_humidity;BME280_pressure;Samples;Min_cycle;Max_cycle;Signal;HPM_P1;HPM_P2
2022/01/21 00:00:01;;;;;;;1.60;0.47;;;20.30;45.50;;;;;;5073146;28;20113;-89
2022/01/21 00:02:27;;;;;;;1.70;0.30;;;19.90;45.30;;;;;;5076212;28;20039;-89
2022/01/21 00:04:53;;;;;;;2.53;0.43;;;20.50;45.70;;;;;;5076730;28;20791;-90
2022/01/21 00:07:35;;;;;;;1.13;0.30;;;17.80;44.40;;;;;;5075617;28;20476;-91
2022/01/21 00:10:00;;;;;;;0.90;0.28;;;21.30;46.30;;;;;;5076414;28;20055;-91
2022/01/21 00:12:29;;;;;;;1.10;0.35;;;19.90;45.30;;;;;;5076585;28;20537;-91
2022/01/21 00:14:55;;;;;;;1.48;0.40;;;19.80;45.30;;;;;;5076589;28;20044;-90
2022/01/21 00:17:22;;;;;;;1.48;0.40;;;19.80;45.30;;;;;;5076179;28;20047;-91
2022/01/21 00:19:51;;;;;;;1.85;0.35;;;19.80;45.30;;;;;;5075758;28;20055;-90
2022/01/21 00:30:40;;;;;;;2.88;0.50;;;19.80;45.30;;;;;;5075700;28;20051;-91
2022/01/21 00:33:06;;;;;;;2.35;0.75;;;19.80;45.40;;;;;;5044615;28;20060;-89
2022/01/21 00:35:31;;;;;;;1.75;0.40;;;19.70;45.30;;;;;;5054745;28;20048;-89
2022/01/21 00:37:57;;;;;;;2.40;0.38;;;19.70;45.30;;;;;;5054729;28;20033;-90
2022/01/21 00:40:24;;;;;;;2.00;0.60;;;19.70;45.30;;;;;;5053920;28;20045;-89
2022/01/21 00:43:06;;;;;;;1.95;0.40;;;19.70;45.40;;;;;;5053628;28;20403;-91
2022/01/21 00:45:32;;;;;;;1.65;0.30;;;21.40;46.30;;;;;;5071819;28;20052;-91
2022/01/21 00:48:00;;;;;;;1.42;0.30;;;19.70;45.60;;;;;;5055278;28;20044;-89
2022/01/21 00:50:26;;;;;;;1.65;0.40;;;21.50;46.50;;;;;;5054175;28;20051;-90
2022/01/21 00:52:52;;;;;;;1.23;0.40;;;20.60;45.90;;;;;;5054606;28;20053;-90
2022/01/21 00:55:17;;;;;;;0.93;0.30;;;19.60;45.50;;;;;;5054811;28;20056;-91
2022/01/21 00:57:43;;;;;;;1.65;0.30;;;19.60;45.40;;;;;;5054861;28;20456;-90
2022/01/21 01:00:10;;;;;;;1.50;0.38;;;19.60;45.50;;;;;;5054806;28;20064;-90
2022/01/21 01:02:36;;;;;;;1.60;0.40;;;19.60;45.50;;;;;;5055280;28;20131;-91
2022/01/21 01:05:01;;;;;;;2.95;0.43;;;19.60;45.50;;;;;;5054509;28;20144;-89
2022/01/21 01:07:27;;;;;;;1.55;0.30;;;19.60;45.50;;;;;;5052017;28;20170;-90
2022/01/21 01:09:55;;;;;;;1.30;0.35;;;19.60;45.50;;;;;;5053516;28;20040;-89
2022/01/21 01:12:36;;;;;;;1.38;0.30;;;19.60;45.50;;;;;;5054903;28;20557;-91
2022/01/21 01:20:32;;;;;;;1.38;0.30;;;19.50;45.50;;;;;;5055003;28;20044;-91
2022/01/21 01:23:09;;;;;;;2.50;0.70;;;19.50;45.60;;;;;;5054814;28;20048;-91
2022/01/21 01:28:19;;;;;;;0.80;0.32;;;19.50;45.60;;;;;;5054552;28;20044;-90
2022/01/21 01:30:44;;;;;;;1.17;0.30;;;19.50;45.60;;;;;;5054610;28;20519;-90
2022/01/21 01:33:13;;;;;;;1.27;0.30;;;19.50;45.60;;;;;;5054218;28;20189;-90
2022/01/21 01:35:39;;;;;;;1.23;0.32;;;19.40;45.60;;;;;;5054217;28;20484;-89
2022/01/21 01:51:08;;;;;;;1.55;0.45;;;19.40;45.60;;;;;;5049218;28;20592;-90
2022/01/21 01:53:40;;;;;;;1.13;0.30;;;20.40;46.20;;;;;;5016140;28;20045;-90
2022/01/21 01:56:07;;;;;;;1.67;0.30;;;19.30;45.70;;;;;;5047255;28;20139;-90
2022/01/21 01:58:41;;;;;;;1.00;0.30;;;19.30;45.70;;;;;;5052805;28;20098;-91
2022/01/21 02:01:07;;;;;;;1.05;0.30;;;19.30;45.70;;;;;;5049746;28;20048;-90
2022/01/21 02:03:32;;;;;;;0.85;0.20;;;19.30;45.70;;;;;;5050331;28;20071;-91
2022/01/21 02:05:58;;;;;;;1.98;0.55;;;19.30;45.70;;;;;;5050481;28;20041;-89
2022/01/21 02:08:33;;;;;;;1.95;0.45;;;19.30;45.80;;;;;;5050504;28;20056;-91
2022/01/21 02:11:01;;;;;;;3.78;0.50;;;19.40;45.70;;;;;;5034389;28;20094;-91
2022/01/21 02:13:31;;;;;;;1.77;0.43;;;20.00;46.50;;;;;;5049065;28;20094;-91
2022/01/21 02:16:07;;;;;;;0.60;0.15;;;19.00;45.90;;;;;;5049564;28;20045;-89
2022/01/21 02:24:02;;;;;;;1.90;0.40;;;19.30;45.80;;;;;;5049879;28;20087;-91
2022/01/21 02:26:28;;;;;;;2.05;0.30;;;19.30;45.80;;;;;;5050848;28;20072;-89
2022/01/21 02:28:55;;;;;;;1.00;0.40;;;19.30;45.80;;;;;;5049446;28;20084;-91
2022/01/21 02:31:20;;;;;;;1.90;0.30;;;19.30;45.80;;;;;;5048899;28;20041;-90
2022/01/21 02:33:46;;;;;;;2.00;0.40;;;19.30;45.80;;;;;;5040826;28;20047;-90
2022/01/21 02:36:12;;;;;;;1.10;0.30;;;19.20;45.80;;;;;;5070343;28;20403;-88
2022/01/21 02:38:37;;;;;;;1.17;0.22;;;19.30;45.90;;;;;;5070993;28;20072;-91
2022/01/21 02:41:03;;;;;;;0.75;0.30;;;19.30;45.80;;;;;;5071069;28;20044;-89
2022/01/21 02:43:28;;;;;;;1.35;0.35;;;19.20;45.80;;;;;;5070437;28;20032;-89
2022/01/21 02:45:54;;;;;;;1.70;0.30;;;19.20;45.80;;;;;;5070350;28;20664;-89
2022/01/21 02:48:21;;;;;;;1.52;0.20;;;19.20;45.80;;;;;;5070209;28;20147;-88
2022/01/21 02:50:47;;;;;;;1.75;0.52;;;19.20;45.80;;;;;;5070856;28;20139;-90
2022/01/21 02:55:47;;;;;;;1.38;0.30;;;19.20;45.80;;;;;;5074372;22;20045;-89
2022/01/21 02:58:12;;;;;;;0.77;0.13;;;19.80;46.10;;;;;;5034288;28;20056;-89
2022/01/21 03:00:38;;;;;;;1.75;0.40;;;20.50;46.50;;;;;;5033457;28;20040;-89
2022/01/21 03:03:04;;;;;;;1.42;0.25;;;19.20;45.80;;;;;;5031550;28;20075;-90
2022/01/21 03:05:30;;;;;;;1.65;0.30;;;19.20;45.90;;;;;;5103896;22;20045;-87
2022/01/21 03:07:56;;;;;;;0.95;0.30;;;20.70;46.70;;;;;;5050701;28;20049;-89
2022/01/21 03:10:21;;;;;;;1.02;0.40;;;19.20;45.90;;;;;;5049570;28;20041;-89
2022/01/21 03:12:47;;;;;;;0.95;0.20;;;19.20;45.90;;;;;;5050381;28;20041;-89
2022/01/21 03:15:21;;;;;;;0.90;0.30;;;19.10;45.90;;;;;;5050430;28;20151;-89
2022/01/21 03:17:47;;;;;;;1.35;0.30;;;20.60;46.90;;;;;;5050270;28;20190;-90
2022/01/21 03:20:20;;;;;;;1.50;0.20;;;20.30;46.50;;;;;;5051085;28;20630;-89
2022/01/21 03:22:46;;;;;;;2.03;0.30;;;19.10;45.90;;;;;;5050570;28;20124;-89
2022/01/21 03:25:11;;;;;;;1.35;0.30;;;19.10;45.80;;;;;;5050104;28;20576;-89
2022/01/21 03:27:37;;;;;;;1.42;0.30;;;19.20;45.90;;;;;;5033275;28;20053;-89
2022/01/21 03:30:04;;;;;;;1.88;0.20;;;19.10;45.80;;;;;;5030741;28;20041;-89
2022/01/21 03:32:29;;;;;;;1.55;0.20;;;19.10;45.80;;;;;;5031021;28;20083;-90
2022/01/21 03:34:58;;;;;;;1.63;0.30;;;19.10;45.90;;;;;;5033662;28;20073;-90
2022/01/21 03:37:23;;;;;;;1.02;0.28;;;19.10;45.90;;;;;;5033648;28;20049;-90
2022/01/21 03:39:49;;;;;;;0.57;0.22;;;18.90;45.90;;;;;;5033030;28;20056;-91
2022/01/21 03:42:14;;;;;;;0.93;0.28;;;19.00;46.40;;;;;;5033244;28;20041;-89
2022/01/21 03:44:49;;;;;;;0.52;0.20;;;19.00;45.90;;;;;;5032672;28;20619;-90
2022/01/21 03:47:15;;;;;;;1.33;0.38;;;16.80;45.30;;;;;;5033135;28;20133;-90
2022/01/21 03:49:49;;;;;;;1.65;0.40;;;17.60;45.40;;;;;;5032897;28;20136;-90
2022/01/21 03:52:15;;;;;;;1.30;0.20;;;19.50;46.20;;;;;;5032987;28;20046;-89
2022/01/21 03:54:40;;;;;;;0.75;0.20;;;18.10;45.60;;;;;;5032957;28;20056;-89
2022/01/21 03:57:06;;;;;;;0.63;0.20;;;19.10;45.90;;;;;;5032613;28;20060;-90
2022/01/21 03:59:31;;;;;;;1.08;0.28;;;19.10;45.90;;;;;;5032065;28;20493;-90
2022/01/21 04:01:57;;;;;;;0.77;0.25;;;19.20;46.10;;;;;;5016754;28;20061;-90
2022/01/21 04:04:22;;;;;;;1.08;0.30;;;19.00;45.90;;;;;;5032772;28;20053;-90
2022/01/21 04:06:48;;;;;;;1.35;0.20;;;19.00;45.80;;;;;;5015727;28;20080;-90
2022/01/21 04:09:15;;;;;;;1.13;0.20;;;19.00;45.80;;;;;;5033479;28;20092;-90
2022/01/21 04:11:41;;;;;;;1.25;0.20;;;19.00;45.80;;;;;;5032927;28;20485;-90
2022/01/21 04:14:06;;;;;;;1.70;0.40;;;19.00;45.90;;;;;;5032430;28;20048;-89
2022/01/21 04:16:32;;;;;;;0.95;0.32;;;19.00;45.90;;;;;;5033904;28;20048;-89
2022/01/21 04:18:57;;;;;;;1.77;0.40;;;19.00;45.90;;;;;;5033350;28;20038;-90
2022/01/21 04:21:23;;;;;;;0.60;0.20;;;19.10;45.90;;;;;;5033561;28;20099;-90
2022/01/21 04:23:48;;;;;;;1.90;0.28;;;19.00;45.90;;;;;;5033455;28;20084;-90
2022/01/21 04:26:14;;;;;;;1.88;0.30;;;19.00;45.90;;;;;;5033831;28;20108;-90
2022/01/21 04:28:39;;;;;;;0.52;0.13;;;20.40;46.60;;;;;;5033514;28;20059;-90
2022/01/21 04:31:05;;;;;;;1.20;0.20;;;19.00;45.90;;;;;;5033356;28;20507;-90
2022/01/21 04:33:55;;;;;;;1.58;0.30;;;19.00;46.00;;;;;;5013702;28;20402;-89
2022/01/21 04:36:36;;;;;;;1.10;0.20;;;20.10;46.70;;;;;;5031505;28;20572;-90
2022/01/21 04:39:06;;;;;;;0.52;0.28;;;19.20;46.10;;;;;;5032546;28;20077;-90
2022/01/21 04:49:41;;;;;;;1.17;0.30;;;19.00;45.90;;;;;;5036276;28;20049;-89
2022/01/21 04:52:07;;;;;;;1.25;0.30;;;19.00;45.90;;;;;;5037756;28;20060;-89
2022/01/21 04:54:33;;;;;;;1.33;0.30;;;19.00;45.90;;;;;;5037614;28;20063;-90
2022/01/21 04:56:59;;;;;;;1.02;0.20;;;19.00;45.90;;;;;;5037116;28;20074;-90
2022/01/21 04:59:25;;;;;;;1.50;0.30;;;19.00;46.00;;;;;;5037560;28;20408;-90
2022/01/21 05:01:51;;;;;;;0.60;0.20;;;19.00;46.20;;;;;;5037454;28;20045;-90
2022/01/21 05:04:18;;;;;;;1.40;0.20;;;19.00;46.00;;;;;;5033386;28;20055;-90
2022/01/21 05:06:44;;;;;;;0.70;0.10;;;19.00;46.00;;;;;;5035038;28;20131;-89
2022/01/21 05:09:09;;;;;;;2.00;0.30;;;19.00;46.00;;;;;;5036874;28;20099;-88
2022/01/21 05:11:37;;;;;;;0.70;0.13;;;19.00;46.10;;;;;;5037146;28;20045;-90
2022/01/21 05:14:18;;;;;;;0.90;0.20;;;19.00;46.10;;;;;;5056894;22;20053;-89
2022/01/21 05:16:47;;;;;;;1.73;0.30;;;19.00;46.10;;;;;;5054605;28;20049;-90
2022/01/21 05:19:17;;;;;;;0.90;0.20;;;19.00;46.10;;;;;;5056889;28;20076;-91
2022/01/21 05:21:47;;;;;;;0.95;0.20;;;19.00;46.10;;;;;;5054658;28;20048;-91
2022/01/21 05:24:14;;;;;;;0.82;0.10;;;19.00;46.20;;;;;;5053174;28;20084;-90
2022/01/21 05:26:42;;;;;;;0.77;0.20;;;19.10;46.20;;;;;;5055493;28;20044;-90
2022/01/21 05:29:09;;;;;;;1.38;0.40;;;19.10;46.30;;;;;;5056160;28;20040;-90
2022/01/21 05:31:34;;;;;;;1.00;0.20;;;19.10;46.20;;;;;;5055133;28;20516;-90
2022/01/21 05:34:03;;;;;;;1.25;0.20;;;20.00;46.70;;;;;;5054704;28;20072;-89
2022/01/21 05:36:40;;;;;;;1.17;0.20;;;20.40;47.00;;;;;;5048745;28;20611;-89
2022/01/21 05:39:07;;;;;;;1.27;0.40;;;17.40;45.50;;;;;;5054582;28;20047;-89
2022/01/21 05:41:33;;;;;;;0.85;0.20;;;20.50;46.90;;;;;;5054950;28;20454;-91
2022/01/21 05:44:06;;;;;;;0.82;0.15;;;18.80;46.30;;;;;;5055461;28;20041;-90
2022/01/21 05:46:55;;;;;;;0.50;0.20;;;18.80;46.00;;;;;;5053166;28;20041;-90
2022/01/21 05:49:25;;;;;;;1.17;0.30;;;20.50;47.10;;;;;;5055103;28;20045;-90
2022/01/21 05:51:53;;;;;;;0.52;0.08;;;19.30;46.20;;;;;;5054670;28;20106;-89
2022/01/21 05:54:24;;;;;;;0.17;0.03;;;19.30;46.20;;;;;;5055089;28;20098;-90
2022/01/21 05:56:49;;;;;;;1.52;0.30;;;19.30;46.10;;;;;;5054981;28;20047;-90
2022/01/21 05:59:15;;;;;;;0.73;0.20;;;19.30;46.10;;;;;;5053655;28;20044;-92
2022/01/21 06:01:41;;;;;;;0.30;0.10;;;19.40;46.20;;;;;;5053680;28;20492;-90
2022/01/21 06:04:06;;;;;;;1.02;0.10;;;19.40;46.20;;;;;;5036516;28;20052;-89
2022/01/21 06:06:32;;;;;;;0.68;0.10;;;19.40;46.10;;;;;;5036220;28;20156;-90
2022/01/21 06:08:57;;;;;;;1.33;0.30;;;19.40;46.10;;;;;;5033942;28;20097;-91
2022/01/21 06:11:23;;;;;;;0.17;0.10;;;19.40;46.10;;;;;;5051995;28;20044;-89
2022/01/21 06:13:50;;;;;;;0.90;0.10;;;19.40;46.10;;;;;;5049331;28;20102;-89
2022/01/21 06:16:19;;;;;;;1.13;0.17;;;19.40;46.10;;;;;;5050195;28;20151;-89
2022/01/21 06:18:45;;;;;;;0.73;0.20;;;19.50;46.10;;;;;;5049518;28;20044;-89
2022/01/21 06:21:13;;;;;;;1.27;0.13;;;19.50;46.10;;;;;;5049358;28;20045;-91
2022/01/21 06:23:39;;;;;;;0.70;0.10;;;19.50;46.10;;;;;;5050262;28;20045;-91
2022/01/21 06:26:04;;;;;;;1.05;0.20;;;17.60;45.30;;;;;;5050036;28;20037;-91
2022/01/21 06:28:30;;;;;;;0.88;0.10;;;19.50;46.10;;;;;;5050018;28;20045;-91
2022/01/21 06:31:08;;;;;;;0.47;0.13;;;19.60;46.20;;;;;;5047654;28;20045;-91
2022/01/21 06:33:33;;;;;;;1.20;0.20;;;17.40;45.30;;;;;;5052699;28;20099;-91
2022/01/21 06:35:59;;;;;;;0.47;0.10;;;19.60;46.30;;;;;;5032988;28;20492;-90
2022/01/21 06:38:24;;;;;;;2.75;0.10;;;19.50;46.00;;;;;;5049954;28;20061;-90
2022/01/21 06:40:50;;;;;;;0.50;0.10;;;19.20;45.90;;;;;;5049605;28;20128;-91
2022/01/21 06:43:28;;;;;;;0.43;0.10;;;19.60;46.50;;;;;;5050458;28;20128;-91
2022/01/21 06:45:53;;;;;;;1.73;0.20;;;18.60;46.40;;;;;;5049624;28;20198;-91
2022/01/21 06:48:40;;;;;;;0.95;0.10;;;19.60;46.20;;;;;;5049705;28;20099;-91
2022/01/21 06:51:06;;;;;;;0.60;0.10;;;19.70;46.30;;;;;;5045092;28;20057;-90
2022/01/21 06:53:31;;;;;;;0.70;0.17;;;19.70;46.10;;;;;;5039279;28;20386;-91
2022/01/21 06:55:57;;;;;;;0.35;0.10;;;19.70;46.00;;;;;;5030328;28;20041;-90
2022/01/21 06:58:22;;;;;;;0.77;0.10;;;19.70;46.10;;;;;;5035198;28;20041;-90
2022/01/21 07:00:48;;;;;;;1.13;0.20;;;19.70;46.00;;;;;;5049214;28;20370;-90
2022/01/21 07:03:14;;;;;;;0.63;0.10;;;20.90;46.70;;;;;;5048707;28;20037;-90
2022/01/21 07:05:39;;;;;;;0.43;0.10;;;19.80;46.00;;;;;;5049327;28;20048;-90
2022/01/21 07:08:05;;;;;;;0.20;0.10;;;19.80;46.10;;;;;;5051535;28;20052;-90
2022/01/21 07:10:30;;;;;;;0.95;0.20;;;21.60;47.00;;;;;;5052749;28;20052;-91
2022/01/21 07:12:57;;;;;;;0.60;0.15;;;19.80;46.00;;;;;;5053042;28;20060;-90
2022/01/21 07:15:22;;;;;;;0.30;0.10;;;19.80;46.00;;;;;;5053695;28;20060;-89
2022/01/21 07:17:53;;;;;;;0.70;0.20;;;19.80;46.00;;;;;;5052636;28;20037;-90
2022/01/21 07:20:21;;;;;;;0.38;0.00;;;19.90;46.00;;;;;;5034183;28;20057;-92
2022/01/21 07:22:47;;;;;;;0.82;0.20;;;19.90;46.10;;;;;;5031991;28;20049;-90
2022/01/21 07:25:14;;;;;;;0.50;0.10;;;19.90;46.00;;;;;;5031986;28;20057;-89
2022/01/21 07:27:39;;;;;;;0.40;0.10;;;19.90;45.90;;;;;;5032751;28;20814;-89
2022/01/21 07:30:06;;;;;;;0.35;0.10;;;19.90;45.90;;;;;;5033802;28;20080;-90
2022/01/21 07:32:31;;;;;;;0.75;0.10;;;19.90;45.90;;;;;;5032313;28;20065;-89
2022/01/21 07:34:57;;;;;;;0.55;0.10;;;19.90;45.90;;;;;;5032358;28;20088;-89
2022/01/21 07:37:22;;;;;;;1.73;0.20;;;21.30;46.70;;;;;;5031771;28;20038;-89
2022/01/21 07:39:48;;;;;;;1.20;0.20;;;19.90;45.90;;;;;;5038461;28;20068;-90
2022/01/21 07:42:13;;;;;;;0.68;0.10;;;19.90;45.90;;;;;;5046822;28;20048;-90
2022/01/21 07:44:39;;;;;;;0.95;0.20;;;19.90;45.90;;;;;;5050709;28;20187;-90
2022/01/21 07:47:05;;;;;;;0.93;0.10;;;19.90;45.80;;;;;;5052122;28;20481;-90
2022/01/21 07:49:36;;;;;;;0.43;0.10;;;19.90;46.00;;;;;;5052029;28;20178;-90
2022/01/21 07:52:17;;;;;;;0.90;0.17;;;19.90;46.30;;;;;;5041242;28;20048;-90
2022/01/21 07:54:55;;;;;;;1.08;0.10;;;18.80;45.40;;;;;;5040718;28;20485;-89
2022/01/21 07:57:24;;;;;;;0.75;0.10;;;21.60;46.90;;;;;;5043209;28;20040;-90
2022/01/21 07:59:59;;;;;;;1.50;0.22;;;19.90;46.40;;;;;;5048203;28;20045;-89
2022/01/21 08:02:29;;;;;;;0.20;0.10;;;18.50;45.20;;;;;;5050436;28;20043;-91
2022/01/21 08:04:55;;;;;;;1.55;0.20;;;18.70;45.30;;;;;;5044894;28;20068;-90
2022/01/21 08:07:21;;;;;;;1.02;0.30;;;21.00;46.50;;;;;;5040122;28;20053;-90
2022/01/21 08:09:49;;;;;;;1.38;0.22;;;20.90;46.90;;;;;;5043789;28;20040;-90
2022/01/21 08:12:27;;;;;;;4.60;0.20;;;21.40;46.60;;;;;;5040860;28;20143;-90
2022/01/21 08:14:52;;;;;;;0.70;0.10;;;21.40;46.90;;;;;;5039403;28;20145;-90
2022/01/21 08:17:18;;;;;;;0.88;0.25;;;19.90;45.70;;;;;;5053410;28;20597;-91
2022/01/21 08:19:43;;;;;;;0.70;0.10;;;19.90;45.70;;;;;;5054964;28;20040;-90
2022/01/21 08:22:09;;;;;;;0.65;0.13;;;20.50;46.10;;;;;;5054039;28;20049;-89
2022/01/21 08:24:35;;;;;;;1.50;0.20;;;19.90;45.90;;;;;;5038475;28;20045;-89
2022/01/21 08:27:05;;;;;;;1.33;0.20;;;20.90;46.30;;;;;;5034826;28;20460;-90
2022/01/21 08:29:32;;;;;;;0.50;0.10;;;19.80;45.90;;;;;;5055103;28;20787;-90
2022/01/21 08:31:58;;;;;;;1.42;0.17;;;21.50;47.30;;;;;;5054394;28;20040;-89
2022/01/21 08:34:24;;;;;;;3.92;0.80;;;18.80;45.40;;;;;;5055695;28;20071;-93
2022/01/21 08:36:54;;;;;;;4.38;0.70;;;19.90;46.90;;;;;;5055847;28;20052;-88
2022/01/21 08:39:19;;;;;;;3.35;0.70;;;19.70;45.70;;;;;;5055502;28;20047;-89
2022/01/21 08:41:57;;;;;;;4.40;0.65;;;20.10;45.80;;;;;;5055541;28;20480;-92
2022/01/21 08:44:27;;;;;;;7.03;0.80;;;19.80;44.80;;;;;;5056915;28;20040;-93
2022/01/21 08:47:24;;;;;;;3.58;0.80;;;19.70;45.20;;;;;;5056426;28;20404;-92
2022/01/21 08:50:22;;;;;;;3.45;0.60;;;19.90;44.90;;;;;;5056697;28;20048;-92
2022/01/21 08:56:41;;;;;;;2.65;0.50;;;19.70;44.80;;;;;;5065735;28;20042;-92
2022/01/21 08:59:07;;;;;;;6.20;0.70;;;17.60;44.00;;;;;;5041229;28;20060;-89
2022/01/21 09:02:04;;;;;;;4.65;0.75;;;21.10;46.20;;;;;;5034340;28;20037;-91
2022/01/21 09:04:51;;;;;;;8.93;0.50;;;19.40;45.00;;;;;;5051511;28;20075;-89
2022/01/21 09:07:16;;;;;;;1.75;0.35;;;21.30;46.70;;;;;;5048406;28;20618;-93
2022/01/21 09:10:02;;;;;;;4.30;0.68;;;20.00;45.90;;;;;;5055904;28;20049;-93
2022/01/21 09:12:27;;;;;;;3.10;0.40;;;20.50;46.20;;;;;;5050051;28;20056;-94
2022/01/21 09:14:55;;;;;;;4.63;0.30;;;19.70;45.50;;;;;;5045751;28;20041;-93
2022/01/21 09:17:20;;;;;;;2.97;0.38;;;19.70;45.60;;;;;;5042571;28;20052;-94
2022/01/21 09:19:46;;;;;;;2.50;0.20;;;19.70;45.50;;;;;;5053651;28;20041;-94
2022/01/21 09:22:12;;;;;;;2.08;0.30;;;20.70;46.10;;;;;;5056329;28;20082;-94
2022/01/21 09:24:37;;;;;;;1.65;0.30;;;19.70;45.60;;;;;;5040260;28;20094;-93
2022/01/21 09:27:03;;;;;;;2.65;0.30;;;19.70;45.60;;;;;;5055774;28;20140;-92
2022/01/21 09:29:29;;;;;;;2.17;0.30;;;19.70;45.60;;;;;;5035833;28;20106;-93
2022/01/21 09:31:55;;;;;;;1.63;0.35;;;19.80;45.60;;;;;;5052129;28;20551;-94
2022/01/21 09:34:21;;;;;;;1.52;0.55;;;19.80;45.60;;;;;;5037205;28;20409;-93
2022/01/21 09:36:46;;;;;;;1.85;0.30;;;19.80;45.60;;;;;;5036396;28;20604;-93
2022/01/21 09:39:12;;;;;;;1.63;0.20;;;19.80;45.70;;;;;;5055554;28;20049;-91
2022/01/21 09:41:39;;;;;;;2.75;0.50;;;19.80;45.70;;;;;;5042182;28;20060;-93
2022/01/21 09:44:07;;;;;;;3.20;0.40;;;19.80;45.60;;;;;;5047199;28;20080;-94
2022/01/21 09:46:36;;;;;;;2.83;0.30;;;19.80;45.60;;;;;;5050476;28;20044;-94
2022/01/21 09:49:09;;;;;;;1.50;0.30;;;19.80;45.60;;;;;;5050121;28;20036;-91
2022/01/21 09:51:36;;;;;;;2.10;0.43;;;19.80;45.60;;;;;;5047854;28;20045;-93
2022/01/21 09:54:05;;;;;;;1.50;0.32;;;19.80;45.60;;;;;;5049702;28;20044;-92
2022/01/21 09:56:31;;;;;;;2.80;0.20;;;19.80;45.60;;;;;;5044914;28;20637;-93
2022/01/21 09:58:57;;;;;;;1.77;0.30;;;19.80;45.60;;;;;;5041447;28;20155;-91
2022/01/21 10:01:29;;;;;;;1.00;0.20;;;19.80;45.70;;;;;;5010152;28;20045;-92
2022/01/21 10:03:55;;;;;;;2.65;0.35;;;19.80;45.30;;;;;;5028159;28;20551;-92
2022/01/21 10:06:49;;;;;;;1.05;0.20;;;19.00;44.80;;;;;;5023014;28;20124;-89
2022/01/21 10:09:15;;;;;;;2.50;0.30;;;20.40;45.20;;;;;;5144042;23;20595;-89
2022/01/21 10:11:58;;;;;;;1.70;0.40;;;21.50;46.10;;;;;;5244953;22;20124;-90
2022/01/21 10:14:25;;;;;;;1.38;0.45;;;19.80;45.50;;;;;;5050411;28;20056;-94
2022/01/21 10:16:51;;;;;;;1.40;0.30;;;20.40;45.60;;;;;;5050369;28;20049;-93
2022/01/21 10:19:45;;;;;;;2.47;0.50;;;19.50;45.40;;;;;;5047279;28;20049;-88
2022/01/21 10:22:18;;;;;;;2.45;0.50;;;19.80;45.10;;;;;;5049380;28;20052;-95
2022/01/21 10:25:05;;;;;;;1.13;0.25;;;19.60;45.10;;;;;;5052379;28;20045;-93
2022/01/21 10:27:47;;;;;;;1.45;0.30;;;19.00;45.00;;;;;;5051148;28;20103;-94
2022/01/21 10:30:28;;;;;;;1.00;0.30;;;20.70;46.20;;;;;;5049985;28;20055;-94
2022/01/21 10:32:55;;;;;;;1.42;0.28;;;19.90;45.50;;;;;;5039255;28;20057;-94
2022/01/21 10:39:30;;;;;;;2.90;0.30;;;20.10;45.30;;;;;;5089182;22;20071;-94
2022/01/21 10:42:02;;;;;;;1.23;0.20;;;19.80;45.10;;;;;;5041871;28;20389;-94
2022/01/21 10:44:36;;;;;;;3.47;0.40;;;19.80;45.90;;;;;;5071629;28;20055;-94
2022/01/21 10:47:11;;;;;;;1.65;0.50;;;20.80;46.40;;;;;;5038902;28;20298;-92
2022/01/21 10:53:46;;;;;;;2.13;0.38;;;19.90;45.20;;;;;;5078622;28;20081;-94
2022/01/21 10:56:27;;;;;;;2.60;0.30;;;18.60;44.40;;;;;;5049546;28;20049;-93
2022/01/21 10:58:56;;;;;;;1.95;0.30;;;19.90;45.90;;;;;;5060289;22;20416;-90
2022/01/21 11:01:26;;;;;;;1.25;0.30;;;19.30;44.80;;;;;;5035884;28;20390;-85
2022/01/21 11:03:56;;;;;;;3.47;0.30;;;20.50;45.60;;;;;;5039132;28;20735;-86
2022/01/21 11:06:24;;;;;;;2.80;0.50;;;21.90;46.50;;;;;;5028190;28;20044;-86
2022/01/21 11:08:50;;;;;;;4.43;0.20;;;19.80;45.30;;;;;;5036205;28;20055;-86
2022/01/21 11:11:22;;;;;;;2.33;0.40;;;19.80;45.40;;;;;;5039784;28;20045;-89
2022/01/21 11:13:47;;;;;;;2.53;0.20;;;19.80;46.10;;;;;;5016978;28;20053;-94
2022/01/21 11:16:22;;;;;;;1.25;0.30;;;19.80;45.50;;;;;;5048843;28;20056;-93
2022/01/21 11:18:53;;;;;;;1.38;0.30;;;19.80;45.40;;;;;;5049558;28;20037;-93
2022/01/21 11:21:19;;;;;;;1.38;0.20;;;19.80;45.50;;;;;;5051541;28;20041;-93
2022/01/21 11:23:45;;;;;;;1.42;0.25;;;20.90;46.10;;;;;;5034858;28;20052;-93
2022/01/21 11:26:14;;;;;;;1.38;0.20;;;19.80;45.50;;;;;;5033511;28;20111;-92
2022/01/21 11:28:49;;;;;;;1.63;0.20;;;19.80;45.40;;;;;;5049437;28;20053;-94
2022/01/21 11:31:19;;;;;;;3.42;0.65;;;19.80;45.40;;;;;;5049251;28;20134;-94
2022/01/21 11:33:55;;;;;;;;;;;;;;;;;;;;;
2022/01/21 11:36:27;;;;;;;2.00;0.20;;;19.80;45.50;;;;;;5037388;28;20097;-93
2022/01/21 11:39:09;;;;;;;1.33;0.20;;;19.00;46.50;;;;;;5050601;28;20049;-93
2022/01/21 11:41:50;;;;;;;0.95;0.20;;;19.60;45.30;;;;;;5028408;28;20497;-93
2022/01/21 11:44:39;;;;;;;1.25;0.20;;;17.90;44.70;;;;;;5020299;28;20092;-91
2022/01/21 11:47:15;;;;;;;0.73;0.20;;;19.80;45.40;;;;;;5034389;28;20061;-93
2022/01/21 11:49:55;;;;;;;1.52;0.40;;;19.80;45.70;;;;;;5018446;28;20037;-93
2022/01/21 11:52:43;;;;;;;0.88;0.20;;;21.60;46.30;;;;;;5020962;28;20501;-93
2022/01/21 11:55:29;;;;;;;1.27;0.17;;;19.90;45.50;;;;;;5028224;28;20073;-93
2022/01/21 11:58:11;;;;;;;1.20;0.20;;;19.80;45.50;;;;;;5039980;28;20336;-93
2022/01/21 12:00:36;;;;;;;1.13;0.40;;;19.80;45.40;;;;;;5044570;28;20040;-94
2022/01/21 12:03:02;;;;;;;1.17;0.20;;;19.80;45.40;;;;;;5042029;28;20291;-92
2022/01/21 12:05:27;;;;;;;2.45;0.20;;;19.80;45.40;;;;;;5038401;28;20037;-92
2022/01/21 12:08:09;;;;;;;1.10;0.15;;;19.80;45.50;;;;;;5038844;28;20049;-92
2022/01/21 12:10:58;;;;;;;1.38;0.25;;;19.80;45.40;;;;;;5021967;28;20118;-90
2022/01/21 12:13:26;;;;;;;0.93;0.20;;;19.10;45.30;;;;;;5043163;28;20037;-89
2022/01/21 12:16:20;;;;;;;0.55;0.38;;;21.40;46.30;;;;;;5012235;28;20054;-90
2022/01/21 12:19:08;;;;;;;0.98;0.20;;;20.30;45.80;;;;;;5025185;28;20095;-92
2022/01/21 12:21:43;;;;;;;2.42;0.30;;;20.80;46.20;;;;;;4339633;28;20003140;-92
2022/01/21 12:24:09;;;;;;;1.40;0.30;;;19.80;45.40;;;;;;5033796;28;20049;-91
2022/01/21 12:26:55;;;;;;;1.02;0.30;;;19.80;45.40;;;;;;5030401;28;20102;-91
2022/01/21 12:29:22;;;;;;;0.50;0.10;;;19.80;45.40;;;;;;5051125;28;20053;-88
2022/01/21 12:31:53;;;;;;;1.30;0.20;;;21.30;46.20;;;;;;5045509;28;20057;-92
2022/01/21 12:34:19;;;;;;;4.05;0.20;;;21.20;46.20;;;;;;5044719;28;20056;-90
2022/01/21 12:36:53;;;;;;;1.08;0.28;;;19.80;45.50;;;;;;5058012;28;20055;-90
2022/01/21 12:39:40;;;;;;;0.77;0.20;;;19.80;45.50;;;;;;5040641;28;20045;-89
2022/01/21 12:42:21;;;;;;;1.63;0.32;;;19.80;45.50;;;;;;5043076;28;20132;-89
2022/01/21 12:44:47;;;;;;;1.17;0.40;;;19.90;45.60;;;;;;5043937;28;20060;-90
2022/01/21 12:47:33;;;;;;;1.98;0.30;;;20.20;45.70;;;;;;5048462;28;20567;-91
2022/01/21 12:50:10;;;;;;;0.73;0.20;;;19.90;45.50;;;;;;5039316;28;20068;-89
2022/01/21 12:53:17;;;;;;;1.40;0.20;;;19.90;45.50;;;;;;5030265;28;20041;-87
2022/01/21 12:58:27;;;;;;;0.55;0.20;;;19.90;45.40;;;;;;5060743;28;20056;-90
2022/01/21 13:01:09;;;;;;;1.23;0.30;;;19.90;45.40;;;;;;5052336;28;20135;-91
2022/01/21 13:03:56;;;;;;;3.00;0.47;;;21.00;46.00;;;;;;5053055;28;20048;-90
2022/01/21 13:06:23;;;;;;;4.68;0.77;;;20.00;45.50;;;;;;5049693;28;20071;-88
2022/01/21 13:09:07;;;;;;;7.13;1.30;;;20.00;45.50;;;;;;5051011;28;20552;-88
2022/01/21 13:11:35;;;;;;;9.38;2.58;;;20.00;45.40;;;;;;5044946;28;20051;-86
2022/01/21 13:17:00;;;;;;;21.40;7.77;;;20.10;45.60;;;;;;5053767;28;20056;-88
2022/01/21 13:19:26;;;;;;;24.13;8.80;;;20.10;45.40;;;;;;5052932;28;20298;-87
2022/01/21 13:21:51;;;;;;;24.48;9.32;;;20.10;45.40;;;;;;5036657;28;20061;-87
2022/01/21 13:24:32;;;;;;;27.13;10.18;;;20.40;45.60;;;;;;5026731;28;20045;-86
2022/01/21 13:26:57;;;;;;;28.00;10.55;;;20.10;45.40;;;;;;5027524;28;20046;-87
2022/01/21 13:29:37;;;;;;;32.58;11.07;;;19.60;45.10;;;;;;5006416;28;20048;-87
2022/01/21 13:32:03;;;;;;;27.80;10.55;;;20.20;45.40;;;;;;5012684;28;20134;-87
2022/01/21 13:34:31;;;;;;;25.48;9.80;;;20.20;45.40;;;;;;5025916;28;20087;-86
2022/01/21 13:36:58;;;;;;;28.85;10.52;;;21.50;46.10;;;;;;5029510;28;20126;-87
2022/01/21 13:39:31;;;;;;;33.75;11.38;;;20.20;45.30;;;;;;5027441;28;20075;-86
2022/01/21 13:42:05;;;;;;;26.50;9.52;;;20.30;45.40;;;;;;5028688;28;20030;-87
2022/01/21 13:44:32;;;;;;;29.27;9.63;;;20.30;45.30;;;;;;5021815;28;20884;-88
2022/01/21 13:46:59;;;;;;;21.90;7.75;;;20.30;45.30;;;;;;5033312;28;20586;-88
2022/01/21 13:49:25;;;;;;;38.63;14.35;;;20.30;45.20;;;;;;5033649;28;20045;-91
2022/01/21 13:51:59;;;;;;;83.63;29.25;;;20.30;45.20;;;;;;5035308;28;20416;-90
2022/01/21 13:54:34;;;;;;;121.70;39.78;;;20.30;45.10;;;;;;5033166;28;20053;-88
2022/01/21 13:57:00;;;;;;;130.65;44.92;;;20.30;45.10;;;;;;5032930;28;20037;-88
2022/01/21 13:59:26;;;;;;;163.40;53.10;;;20.30;45.10;;;;;;5039762;23;20397;-91
2022/01/21 14:02:06;;;;;;;176.00;58.20;;;20.30;45.10;;;;;;5013919;28;20604;-88